createdAt,value
2018-07-06T06:15:50.876Z,47.58
2018-07-06T06:30:50.552Z,45.71
2018-07-06T06:45:52.061Z,43.43
2018-07-06T07:00:51.127Z,41.56
2018-07-06T07:15:51.000Z,39.43
2018-07-06T07:30:50.815Z,38.80
2018-07-06T07:45:51.208Z,36.15
2018-07-06T08:00:50.849Z,35.27
2018-07-06T10:45:50.693Z,33.32
2018-07-06T12:45:51.279Z,34.21
2018-07-06T13:00:52.967Z,35.54
2018-07-06T13:15:50.805Z,36.32
2018-07-06T13:30:50.770Z,37.44
2018-07-06T13:45:51.250Z,36.25
2018-07-06T14:00:53.130Z,39.08
2018-07-06T14:15:51.085Z,41.80
2018-07-06T14:30:51.123Z,42.98
2018-07-06T14:45:51.102Z,44.40
2018-07-06T15:00:50.515Z,44.99
2018-07-06T15:15:52.419Z,45.54
2018-07-06T15:30:50.426Z,46.46
2018-07-06T15:45:50.666Z,48.88
2018-07-06T16:00:50.860Z,46.22
2018-07-06T16:15:50.321Z,49.23
2018-07-06T16:30:50.837Z,53.05
2018-07-06T16:45:50.745Z,53.27
2018-07-06T17:00:50.667Z,53.50
2018-07-06T17:15:50.719Z,52.51
2018-07-06T17:30:51.155Z,53.73
2018-07-06T17:45:51.098Z,52.81
2018-07-06T18:00:50.592Z,53.55
2018-07-06T18:15:50.983Z,54.32
2018-07-06T18:30:50.982Z,56.89
2018-07-06T18:45:50.512Z,55.90
2018-07-06T19:00:50.961Z,56.38
2018-07-06T19:15:50.916Z,56.32
2018-07-06T19:30:52.761Z,57.29
2018-07-06T19:45:50.619Z,57.22
2018-07-06T20:00:51.092Z,57.26
2018-07-06T20:15:51.204Z,56.79
2018-07-06T20:30:53.825Z,57.62
2018-07-06T20:45:51.653Z,57.50
2018-07-06T21:00:50.146Z,56.84
2018-07-06T21:15:50.602Z,57.35
2018-07-06T21:30:50.281Z,56.94
2018-07-06T21:45:50.484Z,56.55
2018-07-06T22:00:50.585Z,56.74
2018-07-06T22:15:50.961Z,57.80
2018-07-06T22:30:50.925Z,57.85
2018-07-06T22:45:50.929Z,57.65
2018-07-06T23:00:52.185Z,58.40
2018-07-06T23:15:49.818Z,57.99
2018-07-06T23:30:51.012Z,59.02
2018-07-06T23:45:52.963Z,59.22
